sensor_id;sensor_type;location;lat;lon;timestamp;P1;durP1;ratioP1;P2;durP2;ratioP2
72319;SDS011;60269;52.502;16.732;2024-03-23T00:54:20;46.33;;;14.65;;
72319;SDS011;60269;52.502;16.732;2024-03-23T00:57:51;39.85;;;15.05;;
72319;SDS011;60269;52.502;16.732;2024-03-23T01:01:22;52.33;;;15.37;;
72319;SDS011;60269;52.502;16.732;2024-03-23T01:04:53;39.00;;;14.90;;
72319;SDS011;60269;52.502;16.732;2024-03-23T01:08:24;45.25;;;15.93;;
72319;SDS011;60269;52.502;16.732;2024-03-23T01:11:55;46.17;;;16.40;;
72319;SDS011;60269;52.502;16.732;2024-03-23T01:15:25;44.30;;;15.60;;
72319;SDS011;60269;52.502;16.732;2024-03-23T01:18:56;45.85;;;16.73;;
72319;SDS011;60269;52.502;16.732;2024-03-23T01:22:27;53.67;;;17.13;;
72319;SDS011;60269;52.502;16.732;2024-03-23T01:25:58;40.47;;;15.32;;
72319;SDS011;60269;52.502;16.732;2024-03-23T01:29:29;50.17;;;16.58;;
72319;SDS011;60269;52.502;16.732;2024-03-23T01:33:01;44.35;;;16.25;;
72319;SDS011;60269;52.502;16.732;2024-03-23T01:36:33;47.47;;;15.67;;
72319;SDS011;60269;52.502;16.732;2024-03-23T01:40:04;48.50;;;15.73;;
72319;SDS011;60269;52.502;16.732;2024-03-23T01:43:36;44.17;;;15.32;;
72319;SDS011;60269;52.502;16.732;2024-03-23T01:47:07;45.10;;;16.30;;
72319;SDS011;60269;52.502;16.732;2024-03-23T01:50:38;44.97;;;16.08;;
72319;SDS011;60269;52.502;16.732;2024-03-23T01:54:10;40.38;;;14.38;;
72319;SDS011;60269;52.502;16.732;2024-03-23T01:57:41;38.80;;;14.87;;
72319;SDS011;60269;52.502;16.732;2024-03-23T02:01:12;43.38;;;15.20;;
72319;SDS011;60269;52.502;16.732;2024-03-23T02:04:43;45.67;;;15.80;;
72319;SDS011;60269;52.502;16.732;2024-03-23T02:08:13;49.13;;;16.57;;
72319;SDS011;60269;52.502;16.732;2024-03-23T02:11:45;50.63;;;17.02;;
72319;SDS011;60269;52.502;16.732;2024-03-23T02:15:16;47.33;;;15.55;;
72319;SDS011;60269;52.502;16.732;2024-03-23T02:18:47;46.20;;;15.67;;
72319;SDS011;60269;52.502;16.732;2024-03-23T02:22:18;43.65;;;16.50;;
72319;SDS011;60269;52.502;16.732;2024-03-23T02:25:49;43.55;;;16.38;;
72319;SDS011;60269;52.502;16.732;2024-03-23T02:29:20;43.23;;;14.93;;
72319;SDS011;60269;52.502;16.732;2024-03-23T02:32:51;49.20;;;17.17;;
72319;SDS011;60269;52.502;16.732;2024-03-23T02:36:22;44.53;;;15.57;;
72319;SDS011;60269;52.502;16.732;2024-03-23T02:39:53;51.77;;;16.33;;
72319;SDS011;60269;52.502;16.732;2024-03-23T02:43:24;45.53;;;16.25;;
72319;SDS011;60269;52.502;16.732;2024-03-23T02:46:55;44.13;;;15.53;;
72319;SDS011;60269;52.502;16.732;2024-03-23T02:50:26;40.53;;;14.53;;
72319;SDS011;60269;52.502;16.732;2024-03-23T02:53:57;45.50;;;14.35;;
72319;SDS011;60269;52.502;16.732;2024-03-23T02:57:28;44.10;;;15.93;;
72319;SDS011;60269;52.502;16.732;2024-03-23T03:00:59;52.90;;;15.43;;
72319;SDS011;60269;52.502;16.732;2024-03-23T03:04:30;51.45;;;18.05;;
72319;SDS011;60269;52.502;16.732;2024-03-23T03:08:01;53.05;;;16.05;;
72319;SDS011;60269;52.502;16.732;2024-03-23T03:11:32;44.30;;;16.43;;
72319;SDS011;60269;52.502;16.732;2024-03-23T03:15:03;46.25;;;15.13;;
72319;SDS011;60269;52.502;16.732;2024-03-23T03:18:35;53.35;;;17.20;;
72319;SDS011;60269;52.502;16.732;2024-03-23T03:22:06;52.43;;;16.20;;
72319;SDS011;60269;52.502;16.732;2024-03-23T03:25:37;49.00;;;16.60;;
72319;SDS011;60269;52.502;16.732;2024-03-23T03:29:08;49.95;;;16.38;;
72319;SDS011;60269;52.502;16.732;2024-03-23T03:32:39;26.85;;;9.15;;
72319;SDS011;60269;52.502;16.732;2024-03-23T03:36:10;17.63;;;4.83;;
72319;SDS011;60269;52.502;16.732;2024-03-23T03:39:41;11.25;;;3.42;;
72319;SDS011;60269;52.502;16.732;2024-03-23T03:43:13;11.00;;;3.15;;
72319;SDS011;60269;52.502;16.732;2024-03-23T03:46:44;13.40;;;3.23;;
72319;SDS011;60269;52.502;16.732;2024-03-23T03:50:15;10.40;;;3.17;;
72319;SDS011;60269;52.502;16.732;2024-03-23T03:53:46;11.70;;;2.08;;
72319;SDS011;60269;52.502;16.732;2024-03-23T03:57:17;11.27;;;1.92;;
72319;SDS011;60269;52.502;16.732;2024-03-23T04:00:48;14.37;;;1.77;;
72319;SDS011;60269;52.502;16.732;2024-03-23T04:04:19;10.02;;;1.73;;
72319;SDS011;60269;52.502;16.732;2024-03-23T04:07:51;8.30;;;1.83;;
72319;SDS011;60269;52.502;16.732;2024-03-23T04:11:22;13.73;;;1.97;;
72319;SDS011;60269;52.502;16.732;2024-03-23T04:14:53;10.32;;;1.88;;
72319;SDS011;60269;52.502;16.732;2024-03-23T04:18:24;13.60;;;2.38;;
72319;SDS011;60269;52.502;16.732;2024-03-23T04:21:55;10.30;;;2.10;;
72319;SDS011;60269;52.502;16.732;2024-03-23T04:25:26;11.65;;;2.25;;
72319;SDS011;60269;52.502;16.732;2024-03-23T04:28:57;8.23;;;2.20;;
72319;SDS011;60269;52.502;16.732;2024-03-23T04:32:28;9.57;;;2.20;;
72319;SDS011;60269;52.502;16.732;2024-03-23T04:35:59;9.37;;;1.30;;
72319;SDS011;60269;52.502;16.732;2024-03-23T04:39:29;12.23;;;2.30;;
72319;SDS011;60269;52.502;16.732;2024-03-23T04:43:00;11.10;;;1.97;;
72319;SDS011;60269;52.502;16.732;2024-03-23T04:46:31;11.00;;;1.77;;
72319;SDS011;60269;52.502;16.732;2024-03-23T04:50:03;12.30;;;1.92;;
72319;SDS011;60269;52.502;16.732;2024-03-23T04:53:34;13.55;;;2.15;;
72319;SDS011;60269;52.502;16.732;2024-03-23T04:57:06;11.77;;;2.07;;
72319;SDS011;60269;52.502;16.732;2024-03-23T05:00:37;17.30;;;2.88;;
72319;SDS011;60269;52.502;16.732;2024-03-23T05:04:08;11.90;;;2.35;;
72319;SDS011;60269;52.502;16.732;2024-03-23T05:07:39;14.50;;;2.13;;
72319;SDS011;60269;52.502;16.732;2024-03-23T05:11:12;13.93;;;2.10;;
72319;SDS011;60269;52.502;16.732;2024-03-23T05:14:43;16.48;;;2.35;;
72319;SDS011;60269;52.502;16.732;2024-03-23T05:18:14;12.23;;;1.97;;
72319;SDS011;60269;52.502;16.732;2024-03-23T05:21:45;20.90;;;3.00;;
72319;SDS011;60269;52.502;16.732;2024-03-23T05:25:16;15.40;;;2.05;;
72319;SDS011;60269;52.502;16.732;2024-03-23T05:28:47;9.95;;;2.25;;
72319;SDS011;60269;52.502;16.732;2024-03-23T05:32:18;17.57;;;1.93;;
72319;SDS011;60269;52.502;16.732;2024-03-23T05:35:56;15.20;;;1.83;;
72319;SDS011;60269;52.502;16.732;2024-03-23T05:39:31;15.68;;;2.00;;
72319;SDS011;60269;52.502;16.732;2024-03-23T05:43:02;14.17;;;1.63;;
72319;SDS011;60269;52.502;16.732;2024-03-23T05:46:33;12.18;;;1.70;;
72319;SDS011;60269;52.502;16.732;2024-03-23T05:50:04;14.60;;;1.70;;
72319;SDS011;60269;52.502;16.732;2024-03-23T05:53:35;16.63;;;2.47;;
72319;SDS011;60269;52.502;16.732;2024-03-23T05:57:06;12.93;;;1.83;;
72319;SDS011;60269;52.502;16.732;2024-03-23T06:00:38;13.10;;;1.73;;
72319;SDS011;60269;52.502;16.732;2024-03-23T06:04:09;15.98;;;2.00;;
72319;SDS011;60269;52.502;16.732;2024-03-23T06:07:40;15.33;;;2.60;;
72319;SDS011;60269;52.502;16.732;2024-03-23T06:11:11;14.00;;;2.85;;
72319;SDS011;60269;52.502;16.732;2024-03-23T06:14:42;10.93;;;1.90;;
72319;SDS011;60269;52.502;16.732;2024-03-23T06:18:13;11.43;;;1.70;;
72319;SDS011;60269;52.502;16.732;2024-03-23T06:21:44;16.50;;;2.10;;
72319;SDS011;60269;52.502;16.732;2024-03-23T06:25:15;16.58;;;2.00;;
72319;SDS011;60269;52.502;16.732;2024-03-23T06:28:46;18.43;;;1.90;;
72319;SDS011;60269;52.502;16.732;2024-03-23T06:32:17;17.95;;;2.10;;
72319;SDS011;60269;52.502;16.732;2024-03-23T06:35:51;21.02;;;2.45;;
72319;SDS011;60269;52.502;16.732;2024-03-23T06:39:23;18.67;;;2.80;;
72319;SDS011;60269;52.502;16.732;2024-03-23T06:42:54;17.67;;;2.90;;
72319;SDS011;60269;52.502;16.732;2024-03-23T06:46:25;18.20;;;2.60;;
72319;SDS011;60269;52.502;16.732;2024-03-23T06:49:56;19.00;;;2.60;;
72319;SDS011;60269;52.502;16.732;2024-03-23T06:53:27;12.67;;;2.80;;
72319;SDS011;60269;52.502;16.732;2024-03-23T06:56:58;15.55;;;2.65;;
72319;SDS011;60269;52.502;16.732;2024-03-23T07:00:29;12.13;;;2.60;;
72319;SDS011;60269;52.502;16.732;2024-03-23T07:04:00;19.30;;;3.00;;
72319;SDS011;60269;52.502;16.732;2024-03-23T07:07:31;14.68;;;2.70;;
72319;SDS011;60269;52.502;16.732;2024-03-23T07:11:02;14.73;;;3.65;;
72319;SDS011;60269;52.502;16.732;2024-03-23T07:14:33;18.37;;;2.80;;
72319;SDS011;60269;52.502;16.732;2024-03-23T07:18:04;16.92;;;3.80;;
72319;SDS011;60269;52.502;16.732;2024-03-23T07:21:35;15.35;;;2.55;;
72319;SDS011;60269;52.502;16.732;2024-03-23T07:25:06;10.23;;;3.07;;
72319;SDS011;60269;52.502;16.732;2024-03-23T07:28:38;16.38;;;2.90;;
72319;SDS011;60269;52.502;16.732;2024-03-23T07:32:13;14.15;;;2.90;;
72319;SDS011;60269;52.502;16.732;2024-03-23T07:35:44;15.30;;;3.37;;
72319;SDS011;60269;52.502;16.732;2024-03-23T07:39:15;10.20;;;2.00;;
72319;SDS011;60269;52.502;16.732;2024-03-23T07:42:46;18.02;;;3.17;;
72319;SDS011;60269;52.502;16.732;2024-03-23T07:46:18;20.67;;;3.15;;
72319;SDS011;60269;52.502;16.732;2024-03-23T07:49:49;11.43;;;1.93;;
72319;SDS011;60269;52.502;16.732;2024-03-23T07:53:20;12.57;;;1.73;;
72319;SDS011;60269;52.502;16.732;2024-03-23T07:56:51;12.93;;;2.00;;
72319;SDS011;60269;52.502;16.732;2024-03-23T08:00:22;14.05;;;2.22;;
72319;SDS011;60269;52.502;16.732;2024-03-23T08:03:53;18.50;;;2.20;;
72319;SDS011;60269;52.502;16.732;2024-03-23T08:07:24;16.30;;;1.70;;
72319;SDS011;60269;52.502;16.732;2024-03-23T08:10:56;13.30;;;2.38;;
72319;SDS011;60269;52.502;16.732;2024-03-23T08:14:27;13.07;;;2.27;;
72319;SDS011;60269;52.502;16.732;2024-03-23T08:17:58;15.90;;;2.13;;
72319;SDS011;60269;52.502;16.732;2024-03-23T08:21:30;13.88;;;2.75;;
72319;SDS011;60269;52.502;16.732;2024-03-23T08:25:01;15.50;;;2.33;;
72319;SDS011;60269;52.502;16.732;2024-03-23T08:28:32;21.15;;;3.50;;
72319;SDS011;60269;52.502;16.732;2024-03-23T08:32:03;14.80;;;2.22;;
72319;SDS011;60269;52.502;16.732;2024-03-23T08:35:34;18.35;;;2.55;;
72319;SDS011;60269;52.502;16.732;2024-03-23T08:39:05;9.07;;;1.80;;
72319;SDS011;60269;52.502;16.732;2024-03-23T08:42:36;16.77;;;2.90;;
72319;SDS011;60269;52.502;16.732;2024-03-23T08:49:39;16.23;;;3.08;;
72319;SDS011;60269;52.502;16.732;2024-03-23T08:53:10;18.73;;;4.32;;
72319;SDS011;60269;52.502;16.732;2024-03-23T08:56:40;15.57;;;4.17;;
72319;SDS011;60269;52.502;16.732;2024-03-23T09:00:12;22.75;;;4.00;;
72319;SDS011;60269;52.502;16.732;2024-03-23T09:03:43;15.13;;;3.20;;
72319;SDS011;60269;52.502;16.732;2024-03-23T09:07:14;15.93;;;2.40;;
72319;SDS011;60269;52.502;16.732;2024-03-23T09:10:45;16.45;;;2.72;;
72319;SDS011;60269;52.502;16.732;2024-03-23T09:14:18;13.50;;;2.13;;
72319;SDS011;60269;52.502;16.732;2024-03-23T09:17:49;14.02;;;2.47;;
72319;SDS011;60269;52.502;16.732;2024-03-23T09:21:20;12.40;;;2.60;;
72319;SDS011;60269;52.502;16.732;2024-03-23T09:24:51;12.10;;;3.08;;
72319;SDS011;60269;52.502;16.732;2024-03-23T09:28:22;13.32;;;3.10;;
72319;SDS011;60269;52.502;16.732;2024-03-23T09:31:53;9.90;;;2.13;;
72319;SDS011;60269;52.502;16.732;2024-03-23T09:35:24;12.00;;;2.35;;
72319;SDS011;60269;52.502;16.732;2024-03-23T09:38:54;15.40;;;2.67;;
72319;SDS011;60269;52.502;16.732;2024-03-23T09:42:25;12.75;;;2.22;;
72319;SDS011;60269;52.502;16.732;2024-03-23T09:45:56;8.73;;;1.67;;
72319;SDS011;60269;52.502;16.732;2024-03-23T09:49:27;13.10;;;2.40;;
72319;SDS011;60269;52.502;16.732;2024-03-23T09:52:58;16.23;;;2.63;;
72319;SDS011;60269;52.502;16.732;2024-03-23T09:56:29;15.27;;;3.17;;
72319;SDS011;60269;52.502;16.732;2024-03-23T10:00:00;11.77;;;2.33;;
72319;SDS011;60269;52.502;16.732;2024-03-23T10:03:31;10.82;;;2.40;;
72319;SDS011;60269;52.502;16.732;2024-03-23T10:07:12;10.68;;;2.20;;
72319;SDS011;60269;52.502;16.732;2024-03-23T10:10:44;12.13;;;2.10;;
72319;SDS011;60269;52.502;16.732;2024-03-23T10:14:28;9.70;;;2.20;;
72319;SDS011;60269;52.502;16.732;2024-03-23T10:18:06;15.10;;;2.67;;
72319;SDS011;60269;52.502;16.732;2024-03-23T10:21:55;9.87;;;1.93;;
72319;SDS011;60269;52.502;16.732;2024-03-23T10:25:26;15.32;;;2.22;;
72319;SDS011;60269;52.502;16.732;2024-03-23T10:28:58;12.05;;;1.85;;
72319;SDS011;60269;52.502;16.732;2024-03-23T10:32:32;9.43;;;2.23;;
72319;SDS011;60269;52.502;16.732;2024-03-23T10:36:03;14.18;;;4.25;;
72319;SDS011;60269;52.502;16.732;2024-03-23T10:39:38;11.95;;;3.15;;
72319;SDS011;60269;52.502;16.732;2024-03-23T10:43:11;11.43;;;2.80;;
72319;SDS011;60269;52.502;16.732;2024-03-23T10:46:42;13.40;;;2.83;;
72319;SDS011;60269;52.502;16.732;2024-03-23T10:50:13;15.93;;;3.40;;
72319;SDS011;60269;52.502;16.732;2024-03-23T10:53:44;14.43;;;3.33;;
72319;SDS011;60269;52.502;16.732;2024-03-23T10:57:17;23.23;;;7.43;;
72319;SDS011;60269;52.502;16.732;2024-03-23T11:00:53;11.50;;;4.35;;
72319;SDS011;60269;52.502;16.732;2024-03-23T11:04:32;13.43;;;3.45;;
72319;SDS011;60269;52.502;16.732;2024-03-23T11:08:04;13.83;;;3.20;;
72319;SDS011;60269;52.502;16.732;2024-03-23T11:11:35;13.27;;;3.38;;
72319;SDS011;60269;52.502;16.732;2024-03-23T11:15:10;8.52;;;2.80;;
72319;SDS011;60269;52.502;16.732;2024-03-23T11:18:42;10.33;;;2.60;;
72319;SDS011;60269;52.502;16.732;2024-03-23T11:22:14;10.60;;;3.22;;
72319;SDS011;60269;52.502;16.732;2024-03-23T11:26:08;12.93;;;2.85;;
72319;SDS011;60269;52.502;16.732;2024-03-23T11:29:39;12.40;;;2.23;;
72319;SDS011;60269;52.502;16.732;2024-03-23T11:33:12;7.47;;;2.67;;
72319;SDS011;60269;52.502;16.732;2024-03-23T11:36:43;13.07;;;2.70;;
72319;SDS011;60269;52.502;16.732;2024-03-23T11:40:18;12.07;;;2.47;;
72319;SDS011;60269;52.502;16.732;2024-03-23T11:43:50;11.97;;;2.97;;
72319;SDS011;60269;52.502;16.732;2024-03-23T11:47:21;12.90;;;2.83;;
72319;SDS011;60269;52.502;16.732;2024-03-23T11:50:55;13.47;;;2.90;;
72319;SDS011;60269;52.502;16.732;2024-03-23T11:54:30;10.80;;;2.63;;
72319;SDS011;60269;52.502;16.732;2024-03-23T11:58:01;10.57;;;2.53;;
72319;SDS011;60269;52.502;16.732;2024-03-23T12:01:32;9.80;;;2.13;;
72319;SDS011;60269;52.502;16.732;2024-03-23T12:05:13;12.23;;;3.00;;
72319;SDS011;60269;52.502;16.732;2024-03-23T12:08:45;9.00;;;2.30;;
72319;SDS011;60269;52.502;16.732;2024-03-23T12:12:16;8.23;;;2.45;;
72319;SDS011;60269;52.502;16.732;2024-03-23T12:15:49;9.40;;;2.10;;
72319;SDS011;60269;52.502;16.732;2024-03-23T12:19:21;10.35;;;1.92;;
72319;SDS011;60269;52.502;16.732;2024-03-23T12:23:04;7.20;;;2.20;;
72319;SDS011;60269;52.502;16.732;2024-03-23T12:26:36;9.53;;;1.90;;
72319;SDS011;60269;52.502;16.732;2024-03-23T12:30:08;9.75;;;1.75;;
72319;SDS011;60269;52.502;16.732;2024-03-23T12:33:39;9.48;;;1.90;;
72319;SDS011;60269;52.502;16.732;2024-03-23T12:37:10;8.27;;;2.30;;
72319;SDS011;60269;52.502;16.732;2024-03-23T12:40:49;10.73;;;2.08;;
72319;SDS011;60269;52.502;16.732;2024-03-23T12:44:20;7.35;;;1.38;;
72319;SDS011;60269;52.502;16.732;2024-03-23T12:47:52;9.95;;;3.22;;
72319;SDS011;60269;52.502;16.732;2024-03-23T12:51:26;7.77;;;1.00;;
72319;SDS011;60269;52.502;16.732;2024-03-23T12:54:57;7.38;;;1.70;;
72319;SDS011;60269;52.502;16.732;2024-03-23T12:58:28;11.23;;;1.77;;
72319;SDS011;60269;52.502;16.732;2024-03-23T13:01:59;6.00;;;1.17;;
72319;SDS011;60269;52.502;16.732;2024-03-23T13:05:30;7.88;;;1.52;;
72319;SDS011;60269;52.502;16.732;2024-03-23T13:09:01;5.27;;;0.80;;
72319;SDS011;60269;52.502;16.732;2024-03-23T13:12:33;6.28;;;1.10;;
72319;SDS011;60269;52.502;16.732;2024-03-23T13:16:04;7.78;;;0.70;;
72319;SDS011;60269;52.502;16.732;2024-03-23T13:19:36;5.17;;;0.63;;
72319;SDS011;60269;52.502;16.732;2024-03-23T13:23:08;3.40;;;0.50;;
72319;SDS011;60269;52.502;16.732;2024-03-23T13:26:39;3.30;;;0.60;;
72319;SDS011;60269;52.502;16.732;2024-03-23T13:30:10;3.60;;;0.53;;
72319;SDS011;60269;52.502;16.732;2024-03-23T13:33:42;4.10;;;0.52;;
72319;SDS011;60269;52.502;16.732;2024-03-23T13:37:14;3.03;;;0.32;;
72319;SDS011;60269;52.502;16.732;2024-03-23T13:40:52;2.83;;;0.30;;
72319;SDS011;60269;52.502;16.732;2024-03-23T13:44:29;1.83;;;0.30;;
72319;SDS011;60269;52.502;16.732;2024-03-23T13:48:00;2.83;;;0.30;;
72319;SDS011;60269;52.502;16.732;2024-03-23T13:51:31;3.25;;;0.40;;
72319;SDS011;60269;52.502;16.732;2024-03-23T13:55:02;3.90;;;0.57;;
72319;SDS011;60269;52.502;16.732;2024-03-23T13:58:34;3.72;;;0.47;;
72319;SDS011;60269;52.502;16.732;2024-03-23T14:02:05;5.15;;;0.50;;
72319;SDS011;60269;52.502;16.732;2024-03-23T14:05:36;2.43;;;0.40;;
72319;SDS011;60269;52.502;16.732;2024-03-23T14:09:11;2.58;;;0.30;;
72319;SDS011;60269;52.502;16.732;2024-03-23T14:12:43;2.38;;;0.28;;
72319;SDS011;60269;52.502;16.732;2024-03-23T14:16:14;2.15;;;0.20;;
72319;SDS011;60269;52.502;16.732;2024-03-23T14:19:45;1.50;;;0.20;;
72319;SDS011;60269;52.502;16.732;2024-03-23T14:23:16;3.72;;;0.75;;
72319;SDS011;60269;52.502;16.732;2024-03-23T14:26:48;2.80;;;0.47;;
72319;SDS011;60269;52.502;16.732;2024-03-23T14:30:19;2.83;;;0.30;;
72319;SDS011;60269;52.502;16.732;2024-03-23T14:33:49;4.32;;;0.52;;
72319;SDS011;60269;52.502;16.732;2024-03-23T14:37:21;2.80;;;0.43;;
72319;SDS011;60269;52.502;16.732;2024-03-23T14:40:51;3.63;;;0.65;;
72319;SDS011;60269;52.502;16.732;2024-03-23T14:44:23;4.95;;;0.80;;
72319;SDS011;60269;52.502;16.732;2024-03-23T14:47:54;5.40;;;0.90;;
72319;SDS011;60269;52.502;16.732;2024-03-23T14:51:25;4.82;;;0.55;;
72319;SDS011;60269;52.502;16.732;2024-03-23T14:54:58;3.80;;;0.50;;
72319;SDS011;60269;52.502;16.732;2024-03-23T14:58:28;2.63;;;0.40;;
72319;SDS011;60269;52.502;16.732;2024-03-23T15:02:00;4.10;;;0.63;;
72319;SDS011;60269;52.502;16.732;2024-03-23T15:05:31;4.47;;;0.60;;
72319;SDS011;60269;52.502;16.732;2024-03-23T15:09:02;3.72;;;0.50;;
72319;SDS011;60269;52.502;16.732;2024-03-23T15:12:37;6.50;;;1.13;;
72319;SDS011;60269;52.502;16.732;2024-03-23T15:16:08;3.87;;;0.40;;
72319;SDS011;60269;52.502;16.732;2024-03-23T15:19:40;5.50;;;0.70;;
72319;SDS011;60269;52.502;16.732;2024-03-23T15:23:13;3.30;;;0.30;;
72319;SDS011;60269;52.502;16.732;2024-03-23T15:26:43;3.27;;;0.40;;
72319;SDS011;60269;52.502;16.732;2024-03-23T15:30:14;3.08;;;0.30;;
72319;SDS011;60269;52.502;16.732;2024-03-23T15:33:45;2.77;;;0.50;;
72319;SDS011;60269;52.502;16.732;2024-03-23T15:37:16;3.42;;;0.40;;
72319;SDS011;60269;52.502;16.732;2024-03-23T15:40:50;4.72;;;0.30;;
72319;SDS011;60269;52.502;16.732;2024-03-23T15:44:22;7.30;;;0.83;;
72319;SDS011;60269;52.502;16.732;2024-03-23T15:47:52;4.63;;;0.63;;
72319;SDS011;60269;52.502;16.732;2024-03-23T15:51:23;3.85;;;0.65;;
72319;SDS011;60269;52.502;16.732;2024-03-23T15:54:56;2.33;;;0.40;;
72319;SDS011;60269;52.502;16.732;2024-03-23T15:58:29;3.63;;;0.50;;
72319;SDS011;60269;52.502;16.732;2024-03-23T16:02:01;2.92;;;0.40;;
72319;SDS011;60269;52.502;16.732;2024-03-23T16:05:33;4.65;;;0.75;;
72319;SDS011;60269;52.502;16.732;2024-03-23T16:09:04;5.30;;;0.60;;
72319;SDS011;60269;52.502;16.732;2024-03-23T16:12:35;6.20;;;0.82;;
72319;SDS011;60269;52.502;16.732;2024-03-23T16:16:06;6.90;;;1.30;;
72319;SDS011;60269;52.502;16.732;2024-03-23T16:19:38;3.63;;;0.45;;
72319;SDS011;60269;52.502;16.732;2024-03-23T16:23:09;3.67;;;0.60;;
72319;SDS011;60269;52.502;16.732;2024-03-23T16:26:39;4.40;;;0.77;;
72319;SDS011;60269;52.502;16.732;2024-03-23T16:30:11;3.67;;;0.70;;
72319;SDS011;60269;52.502;16.732;2024-03-23T16:33:42;4.17;;;0.70;;
72319;SDS011;60269;52.502;16.732;2024-03-23T16:37:13;3.38;;;0.60;;
72319;SDS011;60269;52.502;16.732;2024-03-23T16:40:52;3.90;;;0.60;;
72319;SDS011;60269;52.502;16.732;2024-03-23T16:44:24;5.13;;;1.37;;
72319;SDS011;60269;52.502;16.732;2024-03-23T16:47:55;3.75;;;0.80;;
72319;SDS011;60269;52.502;16.732;2024-03-23T16:51:26;5.55;;;0.60;;
72319;SDS011;60269;52.502;16.732;2024-03-23T16:54:57;4.50;;;0.50;;
72319;SDS011;60269;52.502;16.732;2024-03-23T16:58:28;6.22;;;0.88;;
72319;SDS011;60269;52.502;16.732;2024-03-23T17:02:03;6.27;;;1.50;;
72319;SDS011;60269;52.502;16.732;2024-03-23T17:05:38;7.20;;;1.48;;
72319;SDS011;60269;52.502;16.732;2024-03-23T17:09:09;4.90;;;0.93;;
72319;SDS011;60269;52.502;16.732;2024-03-23T17:12:40;5.45;;;1.33;;
72319;SDS011;60269;52.502;16.732;2024-03-23T17:16:11;6.23;;;1.27;;
72319;SDS011;60269;52.502;16.732;2024-03-23T17:19:43;7.22;;;1.50;;
72319;SDS011;60269;52.502;16.732;2024-03-23T17:23:22;6.20;;;1.30;;
72319;SDS011;60269;52.502;16.732;2024-03-23T17:26:53;5.35;;;1.10;;
72319;SDS011;60269;52.502;16.732;2024-03-23T17:30:24;6.65;;;1.30;;
72319;SDS011;60269;52.502;16.732;2024-03-23T17:33:56;8.37;;;1.67;;
72319;SDS011;60269;52.502;16.732;2024-03-23T17:37:27;6.78;;;1.40;;
72319;SDS011;60269;52.502;16.732;2024-03-23T17:40:58;8.43;;;1.27;;
72319;SDS011;60269;52.502;16.732;2024-03-23T17:44:29;4.80;;;1.17;;
72319;SDS011;60269;52.502;16.732;2024-03-23T17:47:59;6.13;;;1.40;;
72319;SDS011;60269;52.502;16.732;2024-03-23T17:51:31;8.80;;;1.93;;
72319;SDS011;60269;52.502;16.732;2024-03-23T17:55:02;8.52;;;2.40;;
72319;SDS011;60269;52.502;16.732;2024-03-23T17:58:33;5.93;;;1.77;;
72319;SDS011;60269;52.502;16.732;2024-03-23T18:02:05;11.70;;;2.13;;
72319;SDS011;60269;52.502;16.732;2024-03-23T18:05:36;7.65;;;2.05;;
72319;SDS011;60269;52.502;16.732;2024-03-23T18:09:07;9.15;;;1.92;;
72319;SDS011;60269;52.502;16.732;2024-03-23T18:12:40;6.38;;;1.90;;
72319;SDS011;60269;52.502;16.732;2024-03-23T18:16:11;8.73;;;2.13;;
72319;SDS011;60269;52.502;16.732;2024-03-23T18:19:42;7.57;;;2.13;;
72319;SDS011;60269;52.502;16.732;2024-03-23T18:23:14;9.73;;;2.40;;
72319;SDS011;60269;52.502;16.732;2024-03-23T18:26:45;8.17;;;2.13;;
72319;SDS011;60269;52.502;16.732;2024-03-23T18:30:16;9.25;;;1.88;;
72319;SDS011;60269;52.502;16.732;2024-03-23T18:33:47;7.40;;;1.60;;
72319;SDS011;60269;52.502;16.732;2024-03-23T18:37:17;8.60;;;1.10;;
72319;SDS011;60269;52.502;16.732;2024-03-23T18:40:48;7.05;;;1.10;;
72319;SDS011;60269;52.502;16.732;2024-03-23T18:44:22;8.60;;;1.57;;
72319;SDS011;60269;52.502;16.732;2024-03-23T18:47:53;8.13;;;1.25;;
72319;SDS011;60269;52.502;16.732;2024-03-23T18:51:23;7.60;;;1.97;;
72319;SDS011;60269;52.502;16.732;2024-03-23T18:54:54;9.05;;;2.42;;
72319;SDS011;60269;52.502;16.732;2024-03-23T18:58:26;11.57;;;2.13;;
72319;SDS011;60269;52.502;16.732;2024-03-23T19:01:57;8.80;;;1.98;;
72319;SDS011;60269;52.502;16.732;2024-03-23T19:05:28;10.90;;;3.13;;
72319;SDS011;60269;52.502;16.732;2024-03-23T19:08:59;14.23;;;4.05;;
72319;SDS011;60269;52.502;16.732;2024-03-23T19:12:30;15.43;;;4.33;;
72319;SDS011;60269;52.502;16.732;2024-03-23T19:16:02;11.98;;;3.85;;
72319;SDS011;60269;52.502;16.732;2024-03-23T19:19:35;17.10;;;4.20;;
72319;SDS011;60269;52.502;16.732;2024-03-23T19:23:06;12.60;;;3.53;;
72319;SDS011;60269;52.502;16.732;2024-03-23T19:26:37;10.60;;;3.40;;
72319;SDS011;60269;52.502;16.732;2024-03-23T19:30:08;12.52;;;4.32;;
72319;SDS011;60269;52.502;16.732;2024-03-23T19:33:40;13.75;;;4.13;;
72319;SDS011;60269;52.502;16.732;2024-03-23T19:37:11;16.13;;;2.80;;
72319;SDS011;60269;52.502;16.732;2024-03-23T19:40:42;19.20;;;4.35;;
72319;SDS011;60269;52.502;16.732;2024-03-23T19:44:22;15.68;;;4.60;;
72319;SDS011;60269;52.502;16.732;2024-03-23T19:47:53;17.97;;;5.33;;
72319;SDS011;60269;52.502;16.732;2024-03-23T19:51:24;12.70;;;3.58;;
72319;SDS011;60269;52.502;16.732;2024-03-23T19:54:55;18.23;;;5.20;;
72319;SDS011;60269;52.502;16.732;2024-03-23T19:58:26;15.82;;;4.97;;
72319;SDS011;60269;52.502;16.732;2024-03-23T20:01:57;22.30;;;6.68;;
72319;SDS011;60269;52.502;16.732;2024-03-23T20:05:28;15.77;;;5.47;;
72319;SDS011;60269;52.502;16.732;2024-03-23T20:08:59;17.13;;;6.30;;
72319;SDS011;60269;52.502;16.732;2024-03-23T20:12:30;22.02;;;6.75;;
72319;SDS011;60269;52.502;16.732;2024-03-23T20:16:01;21.67;;;6.73;;
72319;SDS011;60269;52.502;16.732;2024-03-23T20:19:32;25.95;;;6.80;;
72319;SDS011;60269;52.502;16.732;2024-03-23T20:23:03;16.30;;;5.97;;
72319;SDS011;60269;52.502;16.732;2024-03-23T20:26:34;22.30;;;5.77;;
72319;SDS011;60269;52.502;16.732;2024-03-23T20:30:06;20.88;;;6.82;;
72319;SDS011;60269;52.502;16.732;2024-03-23T20:33:37;16.60;;;6.32;;
72319;SDS011;60269;52.502;16.732;2024-03-23T20:37:09;16.70;;;6.10;;
72319;SDS011;60269;52.502;16.732;2024-03-23T20:40:40;26.45;;;7.57;;
72319;SDS011;60269;52.502;16.732;2024-03-23T20:44:10;20.25;;;6.70;;
72319;SDS011;60269;52.502;16.732;2024-03-23T20:47:41;16.23;;;5.60;;
72319;SDS011;60269;52.502;16.732;2024-03-23T20:51:12;21.20;;;6.68;;
72319;SDS011;60269;52.502;16.732;2024-03-23T20:54:43;19.65;;;7.13;;
72319;SDS011;60269;52.502;16.732;2024-03-23T20:58:14;19.20;;;6.30;;
72319;SDS011;60269;52.502;16.732;2024-03-23T21:01:45;17.40;;;5.63;;
72319;SDS011;60269;52.502;16.732;2024-03-23T21:05:16;20.50;;;5.00;;
72319;SDS011;60269;52.502;16.732;2024-03-23T21:08:46;16.65;;;4.50;;
72319;SDS011;60269;52.502;16.732;2024-03-23T21:12:17;16.87;;;4.40;;
72319;SDS011;60269;52.502;16.732;2024-03-23T21:15:54;16.65;;;3.83;;
72319;SDS011;60269;52.502;16.732;2024-03-23T21:19:30;14.05;;;4.65;;
72319;SDS011;60269;52.502;16.732;2024-03-23T21:23:01;18.13;;;3.72;;
72319;SDS011;60269;52.502;16.732;2024-03-23T21:26:32;19.60;;;4.13;;
72319;SDS011;60269;52.502;16.732;2024-03-23T21:30:04;13.50;;;3.92;;
72319;SDS011;60269;52.502;16.732;2024-03-23T21:33:39;12.52;;;3.67;;
72319;SDS011;60269;52.502;16.732;2024-03-23T21:37:14;13.73;;;3.30;;